Time;durP1;ratioP1;P1;durP2;ratioP2;P2;SDS_P1;SDS_P2;PMS_P1;PMS_P2;Temp;Humidity;BMP_temperature;BMP_pressure;BME280_temperature;BME280_humidity;BME280_pressure;Samples;Min_cycle;Max_cycle;Signal;HPM_P1;HPM_P2
2023/07/19 00:01:58;;;;;;;7.03;5.05;;;;;;;;;;5015262;28;20045;-78
2023/07/19 00:04:25;;;;;;;7.43;5.20;;;;;;;;;;5015203;28;20052;-77
2023/07/19 00:06:51;;;;;;;6.78;4.78;;;;;;;;;;4980702;28;20085;-77
2023/07/19 00:09:17;;;;;;;8.23;4.55;;;;;;;;;;4996278;28;20045;-77
2023/07/19 00:11:43;;;;;;;10.65;5.35;;;;;;;;;;4996068;28;20060;-77
2023/07/19 00:14:09;;;;;;;10.80;5.40;;;;;;;;;;4973060;28;20030;-78
2023/07/19 00:16:35;;;;;;;8.77;5.60;;;;;;;;;;4996960;28;20065;-77
2023/07/19 00:19:02;;;;;;;8.77;5.70;;;;;;;;;;4996279;28;20038;-78
2023/07/19 00:21:28;;;;;;;11.18;5.68;;;;;;;;;;4996699;28;20091;-78
2023/07/19 00:23:54;;;;;;;9.43;5.50;;;;;;;;;;4996922;28;20061;-78
2023/07/19 00:26:20;;;;;;;9.57;5.78;;;;;;;;;;4996423;28;20128;-78
2023/07/19 00:28:46;;;;;;;8.75;6.03;;;;;;;;;;4996534;28;20053;-78
2023/07/19 00:31:12;;;;;;;9.23;5.95;;;;;;;;;;4980095;28;20037;-78
2023/07/19 00:33:38;;;;;;;10.40;6.22;;;;;;;;;;4996966;28;20192;-78
2023/07/19 00:36:04;;;;;;;11.50;5.63;;;;;;;;;;5013679;28;20056;-78
2023/07/19 00:38:30;;;;;;;8.00;5.93;;;;;;;;;;4996490;28;20097;-78
2023/07/19 00:40:56;;;;;;;8.30;5.50;;;;;;;;;;4996510;28;20055;-78
2023/07/19 00:43:22;;;;;;;9.35;5.35;;;;;;;;;;4996432;28;20521;-78
2023/07/19 00:45:52;;;;;;;9.35;5.70;;;;;;;;;;5013392;28;20050;-78
2023/07/19 00:48:19;;;;;;;7.53;4.82;;;;;;;;;;4995821;28;20038;-78
2023/07/19 00:50:45;;;;;;;7.88;4.43;;;;;;;;;;4979964;28;20048;-78
2023/07/19 00:53:12;;;;;;;8.68;5.20;;;;;;;;;;5013556;28;20034;-78
2023/07/19 00:55:38;;;;;;;9.02;5.55;;;;;;;;;;4996717;28;20487;-77
2023/07/19 00:58:05;;;;;;;7.68;5.45;;;;;;;;;;4995933;28;20042;-78
2023/07/19 01:00:31;;;;;;;8.13;5.53;;;;;;;;;;5013230;28;20045;-78
2023/07/19 01:02:58;;;;;;;7.78;5.10;;;;;;;;;;5013919;28;20498;-78
2023/07/19 01:05:24;;;;;;;9.50;5.32;;;;;;;;;;4995792;28;20086;-78
2023/07/19 01:07:50;;;;;;;7.53;5.30;;;;;;;;;;4995705;28;20515;-78
2023/07/19 01:10:16;;;;;;;7.30;5.30;;;;;;;;;;4995487;28;20103;-78
2023/07/19 01:12:42;;;;;;;8.07;4.63;;;;;;;;;;4995955;28;20045;-78
2023/07/19 01:15:09;;;;;;;7.95;5.38;;;;;;;;;;4995261;28;20041;-77
2023/07/19 01:17:36;;;;;;;9.02;6.13;;;;;;;;;;4995886;28;20048;-78
2023/07/19 01:20:02;;;;;;;9.45;6.20;;;;;;;;;;4995967;28;20041;-78
2023/07/19 01:22:32;;;;;;;9.43;5.93;;;;;;;;;;4995374;28;20491;-78
2023/07/19 01:24:58;;;;;;;9.85;6.55;;;;;;;;;;5013516;28;20068;-78
2023/07/19 01:27:24;;;;;;;8.85;6.18;;;;;;;;;;4995593;28;20045;-78
2023/07/19 01:29:50;;;;;;;11.90;7.00;;;;;;;;;;4980029;28;20387;-78
2023/07/19 01:32:17;;;;;;;12.27;6.57;;;;;;;;;;4994962;28;20041;-78
2023/07/19 01:34:43;;;;;;;9.80;6.60;;;;;;;;;;4995892;28;20076;-78
2023/07/19 01:37:09;;;;;;;11.40;6.60;;;;;;;;;;5013034;28;20040;-78
2023/07/19 01:39:35;;;;;;;9.60;6.10;;;;;;;;;;4972236;28;20049;-78
2023/07/19 01:42:01;;;;;;;9.13;6.50;;;;;;;;;;4991411;28;20037;-78
2023/07/19 01:44:28;;;;;;;11.65;6.95;;;;;;;;;;4979110;28;20045;-78
2023/07/19 01:46:54;;;;;;;9.80;7.05;;;;;;;;;;4995797;28;20077;-78
2023/07/19 01:49:20;;;;;;;11.45;7.63;;;;;;;;;;4995509;28;20034;-78
2023/07/19 01:51:46;;;;;;;11.15;7.60;;;;;;;;;;4995845;28;20064;-78
2023/07/19 01:54:12;;;;;;;12.00;7.60;;;;;;;;;;5012457;28;20038;-78
2023/07/19 01:56:38;;;;;;;9.85;7.75;;;;;;;;;;4995786;28;20181;-78
2023/07/19 01:59:04;;;;;;;10.85;7.68;;;;;;;;;;4995560;28;20053;-78
2023/07/19 02:01:30;;;;;;;8.52;6.70;;;;;;;;;;4992137;28;20050;-78
2023/07/19 02:03:56;;;;;;;13.20;7.28;;;;;;;;;;4989464;28;20395;-78
2023/07/19 02:06:22;;;;;;;12.88;7.35;;;;;;;;;;4994588;28;20046;-78
2023/07/19 02:08:49;;;;;;;11.02;7.53;;;;;;;;;;4995195;28;20133;-78
2023/07/19 02:11:15;;;;;;;8.55;6.88;;;;;;;;;;5012513;28;20523;-78
2023/07/19 02:13:41;;;;;;;10.60;7.57;;;;;;;;;;5012630;28;20034;-78
2023/07/19 02:16:07;;;;;;;10.13;7.80;;;;;;;;;;4995313;28;20565;-78
2023/07/19 02:18:33;;;;;;;12.13;8.45;;;;;;;;;;4995074;28;20494;-78
2023/07/19 02:20:59;;;;;;;11.70;8.10;;;;;;;;;;4995361;28;20048;-78
2023/07/19 02:23:25;;;;;;;10.55;7.80;;;;;;;;;;4964740;28;20042;-78
2023/07/19 02:25:51;;;;;;;10.75;7.45;;;;;;;;;;4994675;28;20038;-78
2023/07/19 02:28:18;;;;;;;11.70;7.65;;;;;;;;;;4994615;28;20494;-79
2023/07/19 02:30:44;;;;;;;11.77;8.38;;;;;;;;;;4994620;28;20042;-78
2023/07/19 02:33:14;;;;;;;12.70;8.15;;;;;;;;;;4994251;28;20049;-78
2023/07/19 02:35:41;;;;;;;12.60;8.60;;;;;;;;;;4994595;28;20057;-78
2023/07/19 02:38:08;;;;;;;14.32;8.00;;;;;;;;;;4978760;28;20546;-78
2023/07/19 02:40:34;;;;;;;11.95;7.72;;;;;;;;;;5011875;28;20046;-78
2023/07/19 02:43:00;;;;;;;12.00;7.72;;;;;;;;;;4978350;28;20038;-78
2023/07/19 02:45:26;;;;;;;12.55;7.78;;;;;;;;;;4989213;28;20126;-78
2023/07/19 02:47:52;;;;;;;11.90;8.20;;;;;;;;;;4994826;28;20045;-78
2023/07/19 02:50:21;;;;;;;10.77;7.63;;;;;;;;;;5011641;28;20034;-78
2023/07/19 02:52:47;;;;;;;11.95;8.13;;;;;;;;;;4994640;28;20046;-78
2023/07/19 02:55:14;;;;;;;12.32;8.45;;;;;;;;;;4978069;28;20077;-78
2023/07/19 02:57:40;;;;;;;11.00;7.88;;;;;;;;;;4978361;28;20033;-78
2023/07/19 03:00:06;;;;;;;11.88;8.52;;;;;;;;;;4994608;28;20046;-78
2023/07/19 03:02:33;;;;;;;13.63;8.13;;;;;;;;;;5011715;28;20050;-78
2023/07/19 03:04:59;;;;;;;13.52;8.18;;;;;;;;;;4971903;28;20491;-77
2023/07/19 03:07:25;;;;;;;11.07;8.05;;;;;;;;;;4993741;28;20088;-78
2023/07/19 03:09:51;;;;;;;12.02;7.38;;;;;;;;;;4978634;28;20050;-78
2023/07/19 03:12:17;;;;;;;14.23;8.00;;;;;;;;;;4994420;28;20105;-78
2023/07/19 03:14:43;;;;;;;13.23;8.15;;;;;;;;;;4994038;28;20074;-78
2023/07/19 03:17:09;;;;;;;15.23;7.72;;;;;;;;;;4989028;28;20045;-78
2023/07/19 03:19:35;;;;;;;13.13;7.90;;;;;;;;;;4994234;28;20054;-78
2023/07/19 03:22:02;;;;;;;12.00;7.97;;;;;;;;;;4994149;28;20046;-78
2023/07/19 03:24:28;;;;;;;13.35;8.00;;;;;;;;;;4993582;28;20091;-78
2023/07/19 03:26:54;;;;;;;13.65;7.95;;;;;;;;;;5011953;28;20029;-78
2023/07/19 03:29:20;;;;;;;12.48;8.25;;;;;;;;;;4994219;28;20041;-78
2023/07/19 03:31:46;;;;;;;10.73;7.60;;;;;;;;;;4994670;28;20048;-78
2023/07/19 03:34:12;;;;;;;12.95;7.72;;;;;;;;;;4994332;28;20479;-78
2023/07/19 03:36:38;;;;;;;12.18;8.65;;;;;;;;;;4977870;28;20487;-78
2023/07/19 03:39:04;;;;;;;15.20;8.95;;;;;;;;;;4994101;28;20470;-78
2023/07/19 03:41:30;;;;;;;19.02;9.30;;;;;;;;;;4993852;28;20450;-78
2023/07/19 03:43:57;;;;;;;16.42;9.52;;;;;;;;;;4994082;28;20483;-78
2023/07/19 03:46:23;;;;;;;21.38;9.55;;;;;;;;;;4997102;28;20042;-78
2023/07/19 03:48:49;;;;;;;15.85;9.70;;;;;;;;;;4997844;28;20045;-78
2023/07/19 03:51:15;;;;;;;15.40;9.70;;;;;;;;;;4997637;28;20049;-78
2023/07/19 03:53:41;;;;;;;12.70;9.48;;;;;;;;;;4997870;28;20041;-78
2023/07/19 03:56:07;;;;;;;14.63;9.20;;;;;;;;;;4997744;28;20072;-78
2023/07/19 03:58:33;;;;;;;12.75;9.43;;;;;;;;;;4997459;28;20049;-78
2023/07/19 04:01:00;;;;;;;11.85;9.60;;;;;;;;;;5015355;28;20485;-78
2023/07/19 04:03:27;;;;;;;13.90;9.48;;;;;;;;;;5015187;28;20198;-79
2023/07/19 04:05:54;;;;;;;15.40;9.30;;;;;;;;;;4976317;28;20061;-78
2023/07/19 04:08:20;;;;;;;15.60;9.25;;;;;;;;;;4997966;28;20050;-78
2023/07/19 04:10:46;;;;;;;13.48;8.77;;;;;;;;;;4982100;28;20037;-78
2023/07/19 04:13:13;;;;;;;15.20;9.32;;;;;;;;;;4998496;28;20042;-78
2023/07/19 04:15:40;;;;;;;12.57;8.32;;;;;;;;;;5014949;28;20045;-78
2023/07/19 04:18:06;;;;;;;11.43;8.15;;;;;;;;;;4996628;28;20045;-78
2023/07/19 04:20:33;;;;;;;13.18;8.52;;;;;;;;;;4996783;28;20046;-78
2023/07/19 04:22:59;;;;;;;12.93;7.90;;;;;;;;;;4980754;28;20096;-78
2023/07/19 04:25:25;;;;;;;13.10;8.60;;;;;;;;;;4996981;28;20403;-78
2023/07/19 04:27:52;;;;;;;11.50;7.68;;;;;;;;;;4996345;28;20042;-78
2023/07/19 04:30:18;;;;;;;11.55;7.53;;;;;;;;;;4996683;28;20030;-78
2023/07/19 04:32:44;;;;;;;10.80;6.97;;;;;;;;;;4996476;28;20037;-79
2023/07/19 04:35:10;;;;;;;10.68;6.68;;;;;;;;;;4996466;28;20104;-78
2023/07/19 04:37:38;;;;;;;10.13;6.43;;;;;;;;;;5014190;28;20045;-78
2023/07/19 04:40:06;;;;;;;9.77;6.90;;;;;;;;;;4996792;28;20050;-78
2023/07/19 04:42:32;;;;;;;9.98;6.32;;;;;;;;;;4977305;28;20046;-78
2023/07/19 04:44:58;;;;;;;8.10;5.82;;;;;;;;;;4996695;28;20440;-78
2023/07/19 04:47:24;;;;;;;8.38;5.97;;;;;;;;;;4996684;28;20479;-78
2023/07/19 04:49:50;;;;;;;9.98;5.72;;;;;;;;;;4996137;28;20056;-79
2023/07/19 04:52:16;;;;;;;11.23;5.10;;;;;;;;;;4996238;28;20505;-78
2023/07/19 04:54:42;;;;;;;8.77;5.18;;;;;;;;;;4979420;28;20467;-78
2023/07/19 04:57:08;;;;;;;10.13;5.43;;;;;;;;;;4996008;28;20042;-78
2023/07/19 04:59:34;;;;;;;10.63;5.13;;;;;;;;;;4998130;28;20406;-78
2023/07/19 05:02:01;;;;;;;7.28;4.63;;;;;;;;;;4995928;28;20080;-78
2023/07/19 05:04:29;;;;;;;8.70;5.30;;;;;;;;;;4996516;28;20045;-78
2023/07/19 05:06:55;;;;;;;10.52;5.32;;;;;;;;;;4995995;28;20479;-78
2023/07/19 05:09:21;;;;;;;8.43;4.57;;;;;;;;;;5013611;28;20415;-78
2023/07/19 05:11:47;;;;;;;7.63;5.00;;;;;;;;;;4995608;28;20060;-78
2023/07/19 05:14:13;;;;;;;9.63;5.10;;;;;;;;;;4995784;28;20049;-78
2023/07/19 05:16:39;;;;;;;12.88;6.40;;;;;;;;;;5013198;28;20037;-78
2023/07/19 05:19:06;;;;;;;7.97;5.30;;;;;;;;;;5013429;28;20041;-78
2023/07/19 05:21:32;;;;;;;9.95;5.53;;;;;;;;;;4979944;28;20042;-78
2023/07/19 05:23:58;;;;;;;7.82;4.20;;;;;;;;;;5012936;28;20096;-79
2023/07/19 05:26:24;;;;;;;5.63;3.85;;;;;;;;;;4995264;28;20069;-78
2023/07/19 05:28:51;;;;;;;8.52;3.75;;;;;;;;;;4995452;28;20060;-78
2023/07/19 05:31:18;;;;;;;7.90;4.18;;;;;;;;;;4995842;28;20625;-78
2023/07/19 05:33:44;;;;;;;7.15;3.92;;;;;;;;;;4995145;28;20048;-79
2023/07/19 05:36:10;;;;;;;5.93;3.80;;;;;;;;;;4995504;28;20042;-79
2023/07/19 05:38:36;;;;;;;7.63;3.60;;;;;;;;;;4995422;28;20056;-78
2023/07/19 05:41:02;;;;;;;8.35;3.55;;;;;;;;;;5013021;28;20042;-78
2023/07/19 05:43:32;;;;;;;6.30;3.53;;;;;;;;;;5013073;28;20045;-78
2023/07/19 05:46:05;;;;;;;9.18;3.03;;;;;;;;;;5013141;28;20049;-79
2023/07/19 05:48:31;;;;;;;5.03;2.78;;;;;;;;;;4995306;28;20121;-78
2023/07/19 05:50:57;;;;;;;7.10;3.15;;;;;;;;;;4995536;28;20042;-78
2023/07/19 05:53:23;;;;;;;5.15;2.65;;;;;;;;;;4979220;28;20476;-78
2023/07/19 05:55:49;;;;;;;6.50;2.80;;;;;;;;;;4995682;28;20048;-78
2023/07/19 05:58:15;;;;;;;6.45;2.65;;;;;;;;;;4995531;28;20418;-78
2023/07/19 06:00:42;;;;;;;5.53;2.70;;;;;;;;;;4994706;28;20036;-78
2023/07/19 06:03:08;;;;;;;7.85;2.90;;;;;;;;;;4995264;28;20053;-78
2023/07/19 06:05:34;;;;;;;13.30;7.63;;;;;;;;;;4995277;28;20045;-78
2023/07/19 06:08:00;;;;;;;5.38;2.70;;;;;;;;;;4993948;28;20061;-78
2023/07/19 06:10:27;;;;;;;6.00;2.63;;;;;;;;;;4995161;28;20525;-78
2023/07/19 06:12:53;;;;;;;7.68;2.50;;;;;;;;;;4994843;28;20169;-78
2023/07/19 06:15:19;;;;;;;7.25;2.80;;;;;;;;;;4995184;28;20042;-78
2023/07/19 06:17:45;;;;;;;7.97;2.80;;;;;;;;;;4994632;28;20041;-79
2023/07/19 06:20:11;;;;;;;6.85;2.78;;;;;;;;;;4995131;28;20048;-79
2023/07/19 06:22:37;;;;;;;4.00;2.60;;;;;;;;;;4994741;28;20049;-79
2023/07/19 06:25:04;;;;;;;5.53;2.40;;;;;;;;;;4994289;28;20034;-79
2023/07/19 06:27:31;;;;;;;4.90;2.40;;;;;;;;;;4994928;28;20038;-79
2023/07/19 06:29:58;;;;;;;5.10;2.30;;;;;;;;;;4992770;28;20046;-78
2023/07/19 06:32:25;;;;;;;4.97;2.40;;;;;;;;;;4994910;28;20038;-78
2023/07/19 06:34:51;;;;;;;5.38;2.55;;;;;;;;;;4994835;28;20450;-79
2023/07/19 06:37:17;;;;;;;5.57;2.60;;;;;;;;;;4995082;28;20495;-78
2023/07/19 06:39:43;;;;;;;4.90;2.50;;;;;;;;;;4994411;28;20034;-78
2023/07/19 06:42:09;;;;;;;6.15;2.60;;;;;;;;;;4994131;28;20049;-78
2023/07/19 06:44:35;;;;;;;6.38;2.53;;;;;;;;;;4978489;28;20096;-78
2023/07/19 06:47:03;;;;;;;5.20;2.50;;;;;;;;;;5012366;28;20467;-79
2023/07/19 06:49:29;;;;;;;7.47;2.90;;;;;;;;;;4994399;28;20041;-78
2023/07/19 06:51:55;;;;;;;7.22;2.20;;;;;;;;;;4988647;28;20396;-78
2023/07/19 06:54:21;;;;;;;6.97;2.50;;;;;;;;;;4977398;28;20034;-78
2023/07/19 06:56:47;;;;;;;4.63;2.30;;;;;;;;;;4994806;28;20168;-78
2023/07/19 06:59:13;;;;;;;6.32;2.60;;;;;;;;;;4994894;28;20483;-78
2023/07/19 07:01:40;;;;;;;6.78;2.60;;;;;;;;;;4994787;28;20042;-78
2023/07/19 07:04:09;;;;;;;5.55;2.70;;;;;;;;;;4994129;28;20398;-78
2023/07/19 07:06:36;;;;;;;7.70;2.55;;;;;;;;;;4992941;28;20513;-78
2023/07/19 07:09:03;;;;;;;4.20;2.70;;;;;;;;;;4978081;28;20049;-78
2023/07/19 07:11:29;;;;;;;4.40;2.70;;;;;;;;;;4994895;28;20463;-78
2023/07/19 07:13:55;;;;;;;5.82;2.60;;;;;;;;;;4994368;28;20436;-78
2023/07/19 07:16:21;;;;;;;5.97;2.63;;;;;;;;;;4994658;28;20125;-78
2023/07/19 07:18:47;;;;;;;5.97;3.33;;;;;;;;;;4995516;28;20394;-78
2023/07/19 07:21:14;;;;;;;9.82;2.85;;;;;;;;;;4997858;28;20375;-78
2023/07/19 07:23:40;;;;;;;4.40;1.90;;;;;;;;;;4998381;28;20515;-78
2023/07/19 07:26:06;;;;;;;3.83;1.60;;;;;;;;;;4997997;28;20130;-78
2023/07/19 07:28:32;;;;;;;4.43;1.70;;;;;;;;;;4997698;28;20034;-78
2023/07/19 07:30:58;;;;;;;4.72;1.70;;;;;;;;;;4998217;28;20395;-78
2023/07/19 07:33:24;;;;;;;5.20;1.70;;;;;;;;;;4998154;28;20054;-77
2023/07/19 07:35:50;;;;;;;5.60;1.50;;;;;;;;;;4998022;28;20494;-75
2023/07/19 07:38:16;;;;;;;5.95;1.80;;;;;;;;;;4994411;28;20049;-82
2023/07/19 07:40:42;;;;;;;2.92;1.77;;;;;;;;;;5018689;28;20049;-83
2023/07/19 07:43:09;;;;;;;4.10;1.80;;;;;;;;;;5007551;28;20150;-78
2023/07/19 07:45:35;;;;;;;3.65;1.80;;;;;;;;;;5018169;28;20042;-78
2023/07/19 07:48:01;;;;;;;5.13;2.17;;;;;;;;;;4997163;28;20038;-78
2023/07/19 07:50:27;;;;;;;7.70;1.92;;;;;;;;;;4997171;28;20042;-78
2023/07/19 07:52:53;;;;;;;5.60;1.80;;;;;;;;;;4998271;28;20045;-78
2023/07/19 07:55:19;;;;;;;5.22;1.88;;;;;;;;;;4997042;28;20176;-78
2023/07/19 07:57:45;;;;;;;4.13;1.90;;;;;;;;;;4997658;28;20038;-79
2023/07/19 08:00:12;;;;;;;7.85;2.10;;;;;;;;;;4997107;28;20125;-78
2023/07/19 08:02:38;;;;;;;7.80;2.38;;;;;;;;;;5014653;28;20090;-80
2023/07/19 08:05:04;;;;;;;6.82;2.10;;;;;;;;;;4997053;28;20056;-77
2023/07/19 08:07:31;;;;;;;6.90;2.50;;;;;;;;;;5014394;28;20052;-77
2023/07/19 08:09:57;;;;;;;6.53;2.30;;;;;;;;;;4995478;28;20049;-78
2023/07/19 08:12:24;;;;;;;4.05;2.40;;;;;;;;;;5015289;28;20054;-78
2023/07/19 08:14:50;;;;;;;5.68;2.22;;;;;;;;;;4981458;28;20041;-78
2023/07/19 08:17:16;;;;;;;5.95;2.10;;;;;;;;;;4975104;28;20100;-78
2023/07/19 08:19:43;;;;;;;7.07;2.25;;;;;;;;;;4997078;28;20092;-78
2023/07/19 08:22:23;;;;;;;5.65;2.20;;;;;;;;;;4996762;28;20034;-78
2023/07/19 08:24:49;;;;;;;5.03;2.20;;;;;;;;;;4997207;28;20046;-78
2023/07/19 08:27:15;;;;;;;6.18;1.88;;;;;;;;;;4996734;28;20088;-78
2023/07/19 08:29:41;;;;;;;6.82;1.55;;;;;;;;;;4997068;28;20034;-78
2023/07/19 08:32:07;;;;;;;3.65;1.52;;;;;;;;;;5013848;28;20037;-78
2023/07/19 08:34:33;;;;;;;5.00;1.80;;;;;;;;;;5014557;28;20491;-78
2023/07/19 08:37:00;;;;;;;4.35;1.80;;;;;;;;;;4997053;28;20072;-79
2023/07/19 08:39:27;;;;;;;4.32;1.80;;;;;;;;;;4997071;28;20072;-78
2023/07/19 08:41:53;;;;;;;3.28;1.70;;;;;;;;;;4981118;28;20475;-79
2023/07/19 08:44:23;;;;;;;5.22;1.73;;;;;;;;;;4996421;28;20045;-78
2023/07/19 08:46:49;;;;;;;5.40;1.77;;;;;;;;;;4980563;28;20165;-78
2023/07/19 08:49:19;;;;;;;3.55;1.40;;;;;;;;;;4996392;28;20045;-78
2023/07/19 08:51:45;;;;;;;2.60;1.42;;;;;;;;;;5014255;28;20088;-78
2023/07/19 08:54:12;;;;;;;4.28;1.48;;;;;;;;;;4996487;28;20520;-78
2023/07/19 08:56:38;;;;;;;2.78;1.63;;;;;;;;;;4996661;28;20046;-78
2023/07/19 08:59:06;;;;;;;3.53;1.55;;;;;;;;;;4980026;28;20045;-78
2023/07/19 09:01:32;;;;;;;4.18;1.40;;;;;;;;;;4996534;28;20057;-78
2023/07/19 09:03:59;;;;;;;3.38;1.80;;;;;;;;;;4996600;28;20042;-78
2023/07/19 09:06:25;;;;;;;3.40;1.52;;;;;;;;;;4996012;28;20050;-78
2023/07/19 09:08:54;;;;;;;3.45;1.17;;;;;;;;;;4996312;28;20099;-78
2023/07/19 09:11:21;;;;;;;2.42;1.30;;;;;;;;;;4996118;28;20034;-78
2023/07/19 09:13:52;;;;;;;5.45;1.20;;;;;;;;;;4980326;28;20037;-78
2023/07/19 09:16:25;;;;;;;3.35;1.20;;;;;;;;;;4995594;28;20045;-79
2023/07/19 09:18:51;;;;;;;6.53;1.30;;;;;;;;;;4996222;28;20050;-78
2023/07/19 09:21:17;;;;;;;3.38;1.08;;;;;;;;;;4995595;28;20045;-78
2023/07/19 09:23:43;;;;;;;3.05;1.20;;;;;;;;;;4996173;28;20049;-78
2023/07/19 09:26:09;;;;;;;3.08;1.13;;;;;;;;;;4995584;28;20125;-78
2023/07/19 09:28:35;;;;;;;3.10;1.40;;;;;;;;;;4996013;28;20038;-78
2023/07/19 09:31:02;;;;;;;2.90;1.10;;;;;;;;;;4979915;28;20042;-78
2023/07/19 09:33:29;;;;;;;3.70;1.20;;;;;;;;;;4995584;28;20049;-79
2023/07/19 09:35:56;;;;;;;5.03;1.50;;;;;;;;;;4995987;28;20124;-79
2023/07/19 09:38:23;;;;;;;5.15;1.90;;;;;;;;;;4995845;28;20042;-79
2023/07/19 09:40:51;;;;;;;9.15;1.67;;;;;;;;;;4995748;28;20050;-79
2023/07/19 09:43:17;;;;;;;4.30;1.15;;;;;;;;;;4994790;28;20109;-78
2023/07/19 09:45:50;;;;;;;5.40;1.60;;;;;;;;;;4995842;28;20049;-78
2023/07/19 09:48:16;;;;;;;2.58;1.33;;;;;;;;;;4979399;28;20049;-78
2023/07/19 09:50:43;;;;;;;4.40;1.42;;;;;;;;;;4995676;28;20042;-78
2023/07/19 09:53:13;;;;;;;4.80;1.40;;;;;;;;;;4995708;28;20172;-78
2023/07/19 09:55:39;;;;;;;5.05;1.80;;;;;;;;;;4995444;28;20203;-78
2023/07/19 09:58:07;;;;;;;3.80;1.58;;;;;;;;;;4995529;28;20095;-78
2023/07/19 10:00:33;;;;;;;12.90;2.03;;;;;;;;;;4995071;28;20050;-78
2023/07/19 10:03:00;;;;;;;6.03;1.90;;;;;;;;;;5013400;28;20394;-78
2023/07/19 10:05:29;;;;;;;6.07;2.00;;;;;;;;;;4995028;28;20112;-77
2023/07/19 10:08:02;;;;;;;4.75;2.40;;;;;;;;;;4995110;28;20054;-77
2023/07/19 10:10:36;;;;;;;4.20;2.47;;;;;;;;;;4994765;28;20038;-78
2023/07/19 10:13:02;;;;;;;7.35;2.78;;;;;;;;;;4979276;28;20115;-78
2023/07/19 10:15:28;;;;;;;6.68;2.60;;;;;;;;;;4994698;28;20100;-78
2023/07/19 10:17:55;;;;;;;3.95;2.40;;;;;;;;;;4995146;28;20087;-78
2023/07/19 10:20:23;;;;;;;5.18;2.15;;;;;;;;;;4978796;28;20042;-78
2023/07/19 10:22:49;;;;;;;5.93;2.70;;;;;;;;;;4995513;28;20044;-78
2023/07/19 10:25:17;;;;;;;4.28;2.45;;;;;;;;;;4994882;28;20360;-78
2023/07/19 10:27:54;;;;;;;6.80;3.03;;;;;;;;;;4995204;28;20081;-78
2023/07/19 10:30:20;;;;;;;5.10;2.60;;;;;;;;;;4994669;28;20120;-77
2023/07/19 10:32:50;;;;;;;4.32;2.60;;;;;;;;;;5012833;28;20050;-78
2023/07/19 10:35:32;;;;;;;4.53;2.65;;;;;;;;;;4994525;28;20049;-78
2023/07/19 10:37:58;;;;;;;7.70;3.30;;;;;;;;;;4995116;28;20042;-78
2023/07/19 10:40:24;;;;;;;6.90;3.78;;;;;;;;;;4994691;28;20038;-78
2023/07/19 10:42:50;;;;;;;6.03;3.05;;;;;;;;;;4994975;28;20034;-78
2023/07/19 10:45:16;;;;;;;5.47;3.20;;;;;;;;;;4994792;28;20092;-77
2023/07/19 10:47:42;;;;;;;7.03;4.00;;;;;;;;;;4994719;28;20050;-78
2023/07/19 10:50:11;;;;;;;9.77;4.55;;;;;;;;;;4994826;28;20053;-77
2023/07/19 10:52:37;;;;;;;7.32;3.90;;;;;;;;;;4978299;28;20139;-77
2023/07/19 10:55:03;;;;;;;6.07;3.65;;;;;;;;;;4998031;28;20038;-78
2023/07/19 10:57:31;;;;;;;6.20;3.70;;;;;;;;;;4998209;28;20081;-78
2023/07/19 10:59:57;;;;;;;7.82;3.70;;;;;;;;;;4998992;28;20050;-78
2023/07/19 11:02:24;;;;;;;6.00;3.92;;;;;;;;;;4998456;28;20076;-78
2023/07/19 11:04:50;;;;;;;6.88;3.88;;;;;;;;;;4982657;28;20046;-78
2023/07/19 11:07:16;;;;;;;5.60;4.22;;;;;;;;;;4998487;28;20450;-78
2023/07/19 11:09:42;;;;;;;5.90;4.20;;;;;;;;;;4998215;28;20054;-77
2023/07/19 11:12:11;;;;;;;5.95;3.70;;;;;;;;;;4998500;28;20121;-77
2023/07/19 11:14:42;;;;;;;5.05;2.90;;;;;;;;;;4998091;28;20037;-77
2023/07/19 11:17:09;;;;;;;4.80;3.08;;;;;;;;;;4998569;28;20518;-77
2023/07/19 11:19:41;;;;;;;5.57;2.97;;;;;;;;;;5015718;28;20172;-77
2023/07/19 11:22:08;;;;;;;5.18;2.80;;;;;;;;;;4998209;28;20046;-78
2023/07/19 11:24:38;;;;;;;5.97;3.10;;;;;;;;;;4981818;28;20044;-77
2023/07/19 11:27:05;;;;;;;5.43;3.03;;;;;;;;;;4981901;28;20042;-78
2023/07/19 11:29:32;;;;;;;5.03;3.05;;;;;;;;;;5015520;28;20125;-78
2023/07/19 11:32:18;;;;;;;7.28;4.00;;;;;;;;;;4998503;28;20041;-77
2023/07/19 11:34:45;;;;;;;5.93;3.30;;;;;;;;;;4997861;28;20045;-77
2023/07/19 11:37:28;;;;;;;5.82;3.60;;;;;;;;;;4982178;28;20049;-77
2023/07/19 11:39:57;;;;;;;7.95;4.25;;;;;;;;;;4998640;28;20050;-77
2023/07/19 11:42:42;;;;;;;7.68;4.20;;;;;;;;;;4997876;28;20048;-77
2023/07/19 11:45:12;;;;;;;7.15;4.00;;;;;;;;;;4998030;28;20046;-78
2023/07/19 11:47:39;;;;;;;7.22;4.15;;;;;;;;;;4997336;28;20398;-78
2023/07/19 11:50:06;;;;;;;7.95;4.30;;;;;;;;;;4998204;28;20050;-78
2023/07/19 11:52:41;;;;;;;7.50;4.90;;;;;;;;;;4997663;28;20457;-78
2023/07/19 11:55:11;;;;;;;7.13;4.60;;;;;;;;;;4997852;28;20107;-77
2023/07/19 11:57:37;;;;;;;7.05;4.57;;;;;;;;;;4997149;28;20049;-78
2023/07/19 12:00:03;;;;;;;6.70;4.03;;;;;;;;;;4981776;28;20050;-77
2023/07/19 12:02:29;;;;;;;8.27;4.65;;;;;;;;;;5015041;28;20044;-78
2023/07/19 12:04:56;;;;;;;8.25;4.65;;;;;;;;;;4997526;28;20394;-77
2023/07/19 12:07:22;;;;;;;6.70;4.70;;;;;;;;;;4980542;28;20052;-77
2023/07/19 12:09:48;;;;;;;9.15;4.60;;;;;;;;;;4997056;28;20073;-78
2023/07/19 12:12:14;;;;;;;9.13;4.88;;;;;;;;;;4998399;28;20521;-78
2023/07/19 12:14:40;;;;;;;8.90;4.05;;;;;;;;;;4997065;28;20038;-77
2023/07/19 12:17:06;;;;;;;8.93;4.15;;;;;;;;;;5015082;28;20502;-77
2023/07/19 12:19:33;;;;;;;7.03;4.40;;;;;;;;;;4997266;28;20049;-77
2023/07/19 12:22:00;;;;;;;5.97;3.55;;;;;;;;;;4997653;28;20034;-77
2023/07/19 12:24:26;;;;;;;5.80;3.50;;;;;;;;;;4997458;28;20522;-77
2023/07/19 12:26:52;;;;;;;6.18;3.63;;;;;;;;;;5014353;28;20124;-77
2023/07/19 12:29:18;;;;;;;6.60;3.65;;;;;;;;;;4997135;28;20042;-77
2023/07/19 12:31:45;;;;;;;7.35;3.53;;;;;;;;;;5014399;28;20120;-77
2023/07/19 12:34:11;;;;;;;5.70;3.30;;;;;;;;;;4981149;28;20121;-77
2023/07/19 12:36:37;;;;;;;5.80;3.42;;;;;;;;;;5014445;28;20046;-77
2023/07/19 12:39:04;;;;;;;7.72;3.30;;;;;;;;;;4980720;28;20042;-77
2023/07/19 12:41:30;;;;;;;7.57;3.78;;;;;;;;;;4980377;28;20092;-77
2023/07/19 12:43:56;;;;;;;10.55;3.65;;;;;;;;;;4996947;28;20528;-76
2023/07/19 12:46:22;;;;;;;6.25;4.00;;;;;;;;;;4996924;28;20407;-77
2023/07/19 12:48:48;;;;;;;7.47;3.80;;;;;;;;;;4996227;28;20042;-77
2023/07/19 12:51:15;;;;;;;8.07;3.97;;;;;;;;;;4996843;28;20045;-77
2023/07/19 12:53:41;;;;;;;5.43;3.85;;;;;;;;;;4996563;28;20042;-77
2023/07/19 12:56:07;;;;;;;6.72;4.15;;;;;;;;;;4980500;28;20084;-77
2023/07/19 12:58:33;;;;;;;7.68;3.80;;;;;;;;;;5013633;28;20125;-77
2023/07/19 13:00:59;;;;;;;7.30;3.92;;;;;;;;;;4996507;28;20042;-77
2023/07/19 13:03:25;;;;;;;5.68;3.47;;;;;;;;;;4996468;28;20046;-77
2023/07/19 13:05:52;;;;;;;8.07;3.97;;;;;;;;;;4996017;28;20052;-77
2023/07/19 13:08:18;;;;;;;7.57;4.20;;;;;;;;;;4996196;28;20034;-77
2023/07/19 13:10:44;;;;;;;9.38;4.28;;;;;;;;;;4996108;28;20099;-77
2023/07/19 13:13:10;;;;;;;8.25;4.22;;;;;;;;;;4996381;28;20540;-77
2023/07/19 13:15:37;;;;;;;6.90;4.45;;;;;;;;;;4996271;28;20030;-77
2023/07/19 13:18:04;;;;;;;8.23;4.50;;;;;;;;;;4995805;28;20038;-77
2023/07/19 13:20:30;;;;;;;7.78;4.13;;;;;;;;;;4996604;28;20403;-77
2023/07/19 13:22:56;;;;;;;6.78;4.72;;;;;;;;;;4995757;28;20041;-77
2023/07/19 13:25:22;;;;;;;6.25;4.22;;;;;;;;;;4996063;28;20121;-77
2023/07/19 13:27:48;;;;;;;5.55;3.90;;;;;;;;;;4995574;28;20406;-78
2023/07/19 13:30:15;;;;;;;7.18;3.88;;;;;;;;;;4996165;28;20096;-77
2023/07/19 13:32:41;;;;;;;12.55;4.95;;;;;;;;;;4996012;28;20034;-77
2023/07/19 13:35:08;;;;;;;7.22;3.90;;;;;;;;;;5013311;28;20038;-77
2023/07/19 13:37:34;;;;;;;6.97;4.18;;;;;;;;;;4979932;28;20503;-77
2023/07/19 13:40:00;;;;;;;7.13;3.97;;;;;;;;;;5012990;28;20050;-77
2023/07/19 13:42:26;;;;;;;10.35;3.95;;;;;;;;;;4995979;28;20037;-77
2023/07/19 13:44:52;;;;;;;11.15;4.55;;;;;;;;;;4995719;28;20056;-77
2023/07/19 13:47:18;;;;;;;7.78;3.92;;;;;;;;;;4995621;28;20092;-78
2023/07/19 13:49:44;;;;;;;7.28;3.90;;;;;;;;;;4995301;28;20080;-77
2023/07/19 13:52:10;;;;;;;6.38;3.95;;;;;;;;;;4995549;28;20038;-77
2023/07/19 13:54:37;;;;;;;5.88;3.85;;;;;;;;;;4995795;28;20491;-77
2023/07/19 13:57:04;;;;;;;6.57;4.00;;;;;;;;;;4995738;28;20038;-77
2023/07/19 13:59:30;;;;;;;5.97;3.08;;;;;;;;;;4995569;28;20495;-77
2023/07/19 14:01:56;;;;;;;4.18;1.85;;;;;;;;;;5012812;28;20046;-77
2023/07/19 14:04:22;;;;;;;3.78;1.70;;;;;;;;;;4979102;28;20033;-77
2023/07/19 14:06:48;;;;;;;5.97;1.40;;;;;;;;;;5012541;28;20049;-77
2023/07/19 14:09:14;;;;;;;5.90;1.80;;;;;;;;;;4994843;28;20124;-77
2023/07/19 14:11:40;;;;;;;3.47;1.70;;;;;;;;;;4995393;28;20113;-77
2023/07/19 14:14:06;;;;;;;3.75;1.40;;;;;;;;;;4979456;28;20418;-77
2023/07/19 14:16:33;;;;;;;4.80;1.38;;;;;;;;;;4995495;28;20392;-77
2023/07/19 14:18:59;;;;;;;4.00;1.55;;;;;;;;;;4994813;28;20049;-77
2023/07/19 14:21:25;;;;;;;4.55;1.58;;;;;;;;;;4995277;28;20057;-77
2023/07/19 14:23:52;;;;;;;3.22;1.60;;;;;;;;;;4995031;28;20513;-77
2023/07/19 14:26:18;;;;;;;6.88;1.83;;;;;;;;;;5012788;28;20042;-77
2023/07/19 14:28:44;;;;;;;4.78;1.42;;;;;;;;;;4994290;28;20091;-77
2023/07/19 14:31:10;;;;;;;4.22;1.30;;;;;;;;;;5013014;28;20449;-77
2023/07/19 14:33:36;;;;;;;4.43;1.70;;;;;;;;;;5012943;28;20095;-77
2023/07/19 14:36:02;;;;;;;3.63;1.55;;;;;;;;;;4995258;28;20045;-77
2023/07/19 14:38:29;;;;;;;3.78;1.45;;;;;;;;;;4994730;28;20049;-78